sensor_id;sensor_type;location;lat;lon;timestamp;temperature;humidity
6662;DHT22;3367;48.714;8.994;2023-07-08T00:00:46;20.20;1.00
6662;DHT22;3367;48.714;8.994;2023-07-08T00:03:13;20.20;1.00
6662;DHT22;3367;48.714;8.994;2023-07-08T00:05:43;20.20;1.00
6662;DHT22;3367;48.714;8.994;2023-07-08T00:08:14;20.20;1.00
6662;DHT22;3367;48.714;8.994;2023-07-08T00:10:46;20.10;1.00
6662;DHT22;3367;48.714;8.994;2023-07-08T00:13:15;19.90;1.00
6662;DHT22;3367;48.714;8.994;2023-07-08T00:15:47;19.80;1.00
6662;DHT22;3367;48.714;8.994;2023-07-08T00:18:16;19.60;1.00
6662;DHT22;3367;48.714;8.994;2023-07-08T00:20:46;19.50;1.00
6662;DHT22;3367;48.714;8.994;2023-07-08T00:23:13;19.40;1.00
6662;DHT22;3367;48.714;8.994;2023-07-08T00:25:40;19.30;1.00
6662;DHT22;3367;48.714;8.994;2023-07-08T00:28:12;19.20;1.00
6662;DHT22;3367;48.714;8.994;2023-07-08T00:30:41;19.10;1.00
6662;DHT22;3367;48.714;8.994;2023-07-08T00:33:11;19.10;1.00
6662;DHT22;3367;48.714;8.994;2023-07-08T00:35:39;19.10;1.00
6662;DHT22;3367;48.714;8.994;2023-07-08T00:38:13;19.00;1.00
6662;DHT22;3367;48.714;8.994;2023-07-08T00:40:58;19.00;1.00
6662;DHT22;3367;48.714;8.994;2023-07-08T00:43:38;18.90;1.00
6662;DHT22;3367;48.714;8.994;2023-07-08T00:46:18;18.90;1.00
6662;DHT22;3367;48.714;8.994;2023-07-08T00:48:47;18.80;1.00
6662;DHT22;3367;48.714;8.994;2023-07-08T00:51:20;18.70;1.00
6662;DHT22;3367;48.714;8.994;2023-07-08T00:53:47;18.70;1.00
6662;DHT22;3367;48.714;8.994;2023-07-08T00:56:23;18.70;1.00
6662;DHT22;3367;48.714;8.994;2023-07-08T00:58:59;18.60;1.00
6662;DHT22;3367;48.714;8.994;2023-07-08T01:01:28;18.50;1.00
6662;DHT22;3367;48.714;8.994;2023-07-08T01:03:58;18.50;1.00
6662;DHT22;3367;48.714;8.994;2023-07-08T01:06:28;18.40;1.00
6662;DHT22;3367;48.714;8.994;2023-07-08T01:08:57;18.40;1.00
6662;DHT22;3367;48.714;8.994;2023-07-08T01:11:33;18.40;1.00
6662;DHT22;3367;48.714;8.994;2023-07-08T01:14:02;18.30;1.00
6662;DHT22;3367;48.714;8.994;2023-07-08T01:16:39;18.30;1.00
6662;DHT22;3367;48.714;8.994;2023-07-08T01:19:14;18.30;1.00
6662;DHT22;3367;48.714;8.994;2023-07-08T01:21:46;18.20;1.00
6662;DHT22;3367;48.714;8.994;2023-07-08T01:24:22;18.10;1.00
6662;DHT22;3367;48.714;8.994;2023-07-08T01:26:49;18.10;1.00
6662;DHT22;3367;48.714;8.994;2023-07-08T01:29:19;18.00;1.00
6662;DHT22;3367;48.714;8.994;2023-07-08T01:32:05;17.90;1.00
6662;DHT22;3367;48.714;8.994;2023-07-08T01:34:36;17.80;1.00
6662;DHT22;3367;48.714;8.994;2023-07-08T01:37:06;17.70;1.00
6662;DHT22;3367;48.714;8.994;2023-07-08T01:39:33;17.70;1.00
6662;DHT22;3367;48.714;8.994;2023-07-08T01:42:21;17.70;1.00
6662;DHT22;3367;48.714;8.994;2023-07-08T01:44:49;17.60;1.00
6662;DHT22;3367;48.714;8.994;2023-07-08T01:47:19;17.60;1.00
6662;DHT22;3367;48.714;8.994;2023-07-08T01:49:49;17.50;1.00
6662;DHT22;3367;48.714;8.994;2023-07-08T01:52:17;17.50;1.00
6662;DHT22;3367;48.714;8.994;2023-07-08T01:54:44;17.50;1.00
6662;DHT22;3367;48.714;8.994;2023-07-08T01:57:11;17.50;1.00
6662;DHT22;3367;48.714;8.994;2023-07-08T01:59:38;17.50;1.00
6662;DHT22;3367;48.714;8.994;2023-07-08T02:02:04;17.40;1.00
6662;DHT22;3367;48.714;8.994;2023-07-08T02:04:31;17.40;1.00
6662;DHT22;3367;48.714;8.994;2023-07-08T02:07:00;17.40;1.00
6662;DHT22;3367;48.714;8.994;2023-07-08T02:09:28;17.40;1.00
6662;DHT22;3367;48.714;8.994;2023-07-08T02:11:55;17.30;1.00
6662;DHT22;3367;48.714;8.994;2023-07-08T02:14:22;17.30;1.00
6662;DHT22;3367;48.714;8.994;2023-07-08T02:16:49;17.30;1.00
6662;DHT22;3367;48.714;8.994;2023-07-08T02:19:15;17.20;1.00
6662;DHT22;3367;48.714;8.994;2023-07-08T02:21:42;17.20;1.00
6662;DHT22;3367;48.714;8.994;2023-07-08T02:24:09;17.20;1.00
6662;DHT22;3367;48.714;8.994;2023-07-08T02:26:37;17.20;1.00
6662;DHT22;3367;48.714;8.994;2023-07-08T02:29:03;17.20;1.00
6662;DHT22;3367;48.714;8.994;2023-07-08T02:31:30;17.20;1.00
6662;DHT22;3367;48.714;8.994;2023-07-08T02:33:57;17.20;1.00
6662;DHT22;3367;48.714;8.994;2023-07-08T02:36:23;17.20;1.00
6662;DHT22;3367;48.714;8.994;2023-07-08T02:38:51;17.30;1.00
6662;DHT22;3367;48.714;8.994;2023-07-08T02:41:18;17.30;1.00
6662;DHT22;3367;48.714;8.994;2023-07-08T02:43:46;17.30;1.00
6662;DHT22;3367;48.714;8.994;2023-07-08T02:46:12;17.20;1.00
6662;DHT22;3367;48.714;8.994;2023-07-08T02:48:39;17.20;1.00
6662;DHT22;3367;48.714;8.994;2023-07-08T02:51:06;17.20;1.00
6662;DHT22;3367;48.714;8.994;2023-07-08T02:53:34;17.20;1.00
6662;DHT22;3367;48.714;8.994;2023-07-08T02:56:01;17.20;1.00
6662;DHT22;3367;48.714;8.994;2023-07-08T02:58:28;17.20;1.00
6662;DHT22;3367;48.714;8.994;2023-07-08T03:00:56;17.20;1.00
6662;DHT22;3367;48.714;8.994;2023-07-08T03:03:26;17.10;1.00
6662;DHT22;3367;48.714;8.994;2023-07-08T03:05:55;17.20;1.00
6662;DHT22;3367;48.714;8.994;2023-07-08T03:08:22;17.20;1.00
6662;DHT22;3367;48.714;8.994;2023-07-08T03:10:55;17.20;1.00
6662;DHT22;3367;48.714;8.994;2023-07-08T03:13:22;17.20;1.00
6662;DHT22;3367;48.714;8.994;2023-07-08T03:15:49;17.10;1.00
6662;DHT22;3367;48.714;8.994;2023-07-08T03:18:17;17.10;1.00
6662;DHT22;3367;48.714;8.994;2023-07-08T03:20:47;17.10;1.00
6662;DHT22;3367;48.714;8.994;2023-07-08T03:23:14;17.10;1.00
6662;DHT22;3367;48.714;8.994;2023-07-08T03:25:41;17.10;1.00
6662;DHT22;3367;48.714;8.994;2023-07-08T03:28:08;17.10;1.00
6662;DHT22;3367;48.714;8.994;2023-07-08T03:30:40;17.10;1.00
6662;DHT22;3367;48.714;8.994;2023-07-08T03:33:07;17.00;1.00
6662;DHT22;3367;48.714;8.994;2023-07-08T03:35:35;17.00;1.00
6662;DHT22;3367;48.714;8.994;2023-07-08T03:38:02;16.90;1.00
6662;DHT22;3367;48.714;8.994;2023-07-08T03:40:29;16.90;1.00
6662;DHT22;3367;48.714;8.994;2023-07-08T03:42:56;16.90;1.00
6662;DHT22;3367;48.714;8.994;2023-07-08T03:45:22;16.90;1.00
6662;DHT22;3367;48.714;8.994;2023-07-08T03:47:49;16.80;1.00
6662;DHT22;3367;48.714;8.994;2023-07-08T03:50:19;16.80;1.00
6662;DHT22;3367;48.714;8.994;2023-07-08T03:52:47;16.90;1.00
6662;DHT22;3367;48.714;8.994;2023-07-08T03:55:15;16.90;1.00
6662;DHT22;3367;48.714;8.994;2023-07-08T03:57:42;16.90;1.00
6662;DHT22;3367;48.714;8.994;2023-07-08T04:00:09;17.00;1.00
6662;DHT22;3367;48.714;8.994;2023-07-08T04:02:38;17.10;1.00
6662;DHT22;3367;48.714;8.994;2023-07-08T04:05:05;17.10;1.00
6662;DHT22;3367;48.714;8.994;2023-07-08T04:07:33;17.10;1.00
6662;DHT22;3367;48.714;8.994;2023-07-08T04:10:01;17.30;1.00
6662;DHT22;3367;48.714;8.994;2023-07-08T04:12:28;17.40;1.00
6662;DHT22;3367;48.714;8.994;2023-07-08T04:14:54;17.50;1.00
6662;DHT22;3367;48.714;8.994;2023-07-08T04:17:21;17.60;1.00
6662;DHT22;3367;48.714;8.994;2023-07-08T04:19:48;17.80;1.00
6662;DHT22;3367;48.714;8.994;2023-07-08T04:22:15;17.90;1.00
6662;DHT22;3367;48.714;8.994;2023-07-08T04:24:42;17.90;1.00
6662;DHT22;3367;48.714;8.994;2023-07-08T04:27:12;18.00;1.00
6662;DHT22;3367;48.714;8.994;2023-07-08T04:29:40;18.20;1.00
6662;DHT22;3367;48.714;8.994;2023-07-08T04:32:07;18.30;1.00
6662;DHT22;3367;48.714;8.994;2023-07-08T04:34:34;18.40;1.00
6662;DHT22;3367;48.714;8.994;2023-07-08T04:37:01;18.60;1.00
6662;DHT22;3367;48.714;8.994;2023-07-08T04:39:29;18.80;1.00
6662;DHT22;3367;48.714;8.994;2023-07-08T04:41:56;18.90;1.00
6662;DHT22;3367;48.714;8.994;2023-07-08T04:44:24;18.90;1.00
6662;DHT22;3367;48.714;8.994;2023-07-08T04:46:54;19.10;1.00
6662;DHT22;3367;48.714;8.994;2023-07-08T04:49:23;19.10;1.00
6662;DHT22;3367;48.714;8.994;2023-07-08T04:51:50;19.20;1.00
6662;DHT22;3367;48.714;8.994;2023-07-08T04:54:17;19.20;1.00
6662;DHT22;3367;48.714;8.994;2023-07-08T04:56:45;19.30;1.00
6662;DHT22;3367;48.714;8.994;2023-07-08T04:59:15;19.40;1.00
6662;DHT22;3367;48.714;8.994;2023-07-08T05:01:44;19.50;1.00
6662;DHT22;3367;48.714;8.994;2023-07-08T05:04:12;19.60;1.00
6662;DHT22;3367;48.714;8.994;2023-07-08T05:06:40;19.70;1.00
6662;DHT22;3367;48.714;8.994;2023-07-08T05:09:07;19.80;1.00
6662;DHT22;3367;48.714;8.994;2023-07-08T05:11:34;19.90;1.00
6662;DHT22;3367;48.714;8.994;2023-07-08T05:14:02;19.80;1.00
6662;DHT22;3367;48.714;8.994;2023-07-08T05:16:29;20.00;1.00
6662;DHT22;3367;48.714;8.994;2023-07-08T05:18:57;20.20;1.00
6662;DHT22;3367;48.714;8.994;2023-07-08T05:21:24;20.30;1.00
6662;DHT22;3367;48.714;8.994;2023-07-08T05:23:52;20.30;1.00
6662;DHT22;3367;48.714;8.994;2023-07-08T05:26:19;20.40;1.00
6662;DHT22;3367;48.714;8.994;2023-07-08T05:28:47;20.80;1.00
6662;DHT22;3367;48.714;8.994;2023-07-08T05:31:13;21.40;1.00
6662;DHT22;3367;48.714;8.994;2023-07-08T05:33:40;21.90;1.00
6662;DHT22;3367;48.714;8.994;2023-07-08T05:36:08;22.30;1.00
6662;DHT22;3367;48.714;8.994;2023-07-08T05:38:35;22.80;1.00
6662;DHT22;3367;48.714;8.994;2023-07-08T05:41:02;23.10;1.00
6662;DHT22;3367;48.714;8.994;2023-07-08T05:43:29;23.20;1.00
6662;DHT22;3367;48.714;8.994;2023-07-08T05:45:58;23.20;1.00
6662;DHT22;3367;48.714;8.994;2023-07-08T05:48:26;23.20;1.00
6662;DHT22;3367;48.714;8.994;2023-07-08T05:50:52;23.10;1.00
6662;DHT22;3367;48.714;8.994;2023-07-08T05:53:20;23.10;1.00
6662;DHT22;3367;48.714;8.994;2023-07-08T05:55:48;23.20;1.00
6662;DHT22;3367;48.714;8.994;2023-07-08T05:58:15;23.20;1.00
6662;DHT22;3367;48.714;8.994;2023-07-08T06:00:42;23.20;1.00
6662;DHT22;3367;48.714;8.994;2023-07-08T06:03:09;23.30;1.00
6662;DHT22;3367;48.714;8.994;2023-07-08T06:05:36;23.20;1.00
6662;DHT22;3367;48.714;8.994;2023-07-08T06:08:03;23.30;1.00
6662;DHT22;3367;48.714;8.994;2023-07-08T06:10:32;23.60;1.00
6662;DHT22;3367;48.714;8.994;2023-07-08T06:12:58;24.10;1.00
6662;DHT22;3367;48.714;8.994;2023-07-08T06:15:25;24.30;1.00
6662;DHT22;3367;48.714;8.994;2023-07-08T06:17:52;24.30;1.00
6662;DHT22;3367;48.714;8.994;2023-07-08T06:20:18;24.20;1.00
6662;DHT22;3367;48.714;8.994;2023-07-08T06:22:45;24.10;1.00
6662;DHT22;3367;48.714;8.994;2023-07-08T06:25:12;23.80;1.00
6662;DHT22;3367;48.714;8.994;2023-07-08T06:27:40;23.60;1.00
6662;DHT22;3367;48.714;8.994;2023-07-08T06:30:08;23.40;1.00
6662;DHT22;3367;48.714;8.994;2023-07-08T06:32:35;23.30;1.00
6662;DHT22;3367;48.714;8.994;2023-07-08T06:35:01;23.20;1.00
6662;DHT22;3367;48.714;8.994;2023-07-08T06:37:29;23.30;1.00
6662;DHT22;3367;48.714;8.994;2023-07-08T06:39:55;23.40;1.00
6662;DHT22;3367;48.714;8.994;2023-07-08T06:42:22;23.80;1.00
6662;DHT22;3367;48.714;8.994;2023-07-08T06:44:50;24.20;1.00
6662;DHT22;3367;48.714;8.994;2023-07-08T06:47:17;24.50;1.00
6662;DHT22;3367;48.714;8.994;2023-07-08T06:49:45;25.00;1.00
6662;DHT22;3367;48.714;8.994;2023-07-08T06:52:12;25.00;1.00
6662;DHT22;3367;48.714;8.994;2023-07-08T06:54:39;24.80;1.00
6662;DHT22;3367;48.714;8.994;2023-07-08T06:57:06;24.70;1.00
6662;DHT22;3367;48.714;8.994;2023-07-08T06:59:33;24.50;1.00
6662;DHT22;3367;48.714;8.994;2023-07-08T07:02:01;24.40;1.00
6662;DHT22;3367;48.714;8.994;2023-07-08T07:04:28;24.30;1.00
6662;DHT22;3367;48.714;8.994;2023-07-08T07:06:57;24.30;1.00
6662;DHT22;3367;48.714;8.994;2023-07-08T07:09:24;24.10;1.00
6662;DHT22;3367;48.714;8.994;2023-07-08T07:11:51;24.20;1.00
6662;DHT22;3367;48.714;8.994;2023-07-08T07:14:17;24.10;1.00
6662;DHT22;3367;48.714;8.994;2023-07-08T07:16:44;24.10;1.00
6662;DHT22;3367;48.714;8.994;2023-07-08T07:19:12;24.20;1.00
6662;DHT22;3367;48.714;8.994;2023-07-08T07:21:39;24.20;1.00
6662;DHT22;3367;48.714;8.994;2023-07-08T07:24:06;24.20;1.00
6662;DHT22;3367;48.714;8.994;2023-07-08T07:26:33;24.20;1.00
6662;DHT22;3367;48.714;8.994;2023-07-08T07:29:02;24.20;1.00
6662;DHT22;3367;48.714;8.994;2023-07-08T07:31:28;24.20;1.00
6662;DHT22;3367;48.714;8.994;2023-07-08T07:33:56;24.20;1.00
6662;DHT22;3367;48.714;8.994;2023-07-08T07:36:24;24.20;1.00
6662;DHT22;3367;48.714;8.994;2023-07-08T07:38:51;24.30;1.00
6662;DHT22;3367;48.714;8.994;2023-07-08T07:41:18;24.40;1.00
6662;DHT22;3367;48.714;8.994;2023-07-08T07:43:44;24.50;1.00
6662;DHT22;3367;48.714;8.994;2023-07-08T07:46:11;24.90;1.00
6662;DHT22;3367;48.714;8.994;2023-07-08T07:48:39;25.20;1.00
6662;DHT22;3367;48.714;8.994;2023-07-08T07:51:06;25.70;1.00
6662;DHT22;3367;48.714;8.994;2023-07-08T07:53:37;26.00;1.00
6662;DHT22;3367;48.714;8.994;2023-07-08T07:56:05;26.10;1.00
6662;DHT22;3367;48.714;8.994;2023-07-08T07:58:32;26.20;1.00
6662;DHT22;3367;48.714;8.994;2023-07-08T08:00:59;26.10;1.00
6662;DHT22;3367;48.714;8.994;2023-07-08T08:03:26;26.00;1.00
6662;DHT22;3367;48.714;8.994;2023-07-08T08:05:53;26.00;1.00
6662;DHT22;3367;48.714;8.994;2023-07-08T08:08:20;25.80;1.00
6662;DHT22;3367;48.714;8.994;2023-07-08T08:10:49;26.00;1.00
6662;DHT22;3367;48.714;8.994;2023-07-08T08:13:15;26.30;1.00
6662;DHT22;3367;48.714;8.994;2023-07-08T08:15:42;27.00;1.00
6662;DHT22;3367;48.714;8.994;2023-07-08T08:18:09;27.50;1.00
6662;DHT22;3367;48.714;8.994;2023-07-08T08:20:35;27.80;1.00
6662;DHT22;3367;48.714;8.994;2023-07-08T08:23:02;27.30;1.00
6662;DHT22;3367;48.714;8.994;2023-07-08T08:25:29;27.00;1.00
6662;DHT22;3367;48.714;8.994;2023-07-08T08:27:57;27.30;1.00
6662;DHT22;3367;48.714;8.994;2023-07-08T08:30:24;27.60;1.00
6662;DHT22;3367;48.714;8.994;2023-07-08T08:32:50;27.50;1.00
6662;DHT22;3367;48.714;8.994;2023-07-08T08:35:17;27.30;1.00
6662;DHT22;3367;48.714;8.994;2023-07-08T08:37:44;27.00;1.00
6662;DHT22;3367;48.714;8.994;2023-07-08T08:40:13;27.00;1.00
6662;DHT22;3367;48.714;8.994;2023-07-08T08:42:43;27.50;1.00
6662;DHT22;3367;48.714;8.994;2023-07-08T08:45:18;27.90;1.00
6662;DHT22;3367;48.714;8.994;2023-07-08T08:47:49;27.90;1.00
6662;DHT22;3367;48.714;8.994;2023-07-08T08:50:29;28.30;1.00
6662;DHT22;3367;48.714;8.994;2023-07-08T08:53:00;28.80;1.00
6662;DHT22;3367;48.714;8.994;2023-07-08T08:55:28;29.20;1.00
6662;DHT22;3367;48.714;8.994;2023-07-08T08:58:02;29.50;1.00
6662;DHT22;3367;48.714;8.994;2023-07-08T09:00:41;29.00;1.00
6662;DHT22;3367;48.714;8.994;2023-07-08T09:03:12;28.90;1.00
6662;DHT22;3367;48.714;8.994;2023-07-08T09:05:41;28.50;1.00
6662;DHT22;3367;48.714;8.994;2023-07-08T09:08:13;28.30;1.00
6662;DHT22;3367;48.714;8.994;2023-07-08T09:10:45;28.30;1.00
6662;DHT22;3367;48.714;8.994;2023-07-08T09:13:18;27.80;1.00
6662;DHT22;3367;48.714;8.994;2023-07-08T09:15:48;27.50;1.00
6662;DHT22;3367;48.714;8.994;2023-07-08T09:18:24;27.50;1.00
6662;DHT22;3367;48.714;8.994;2023-07-08T09:20:53;27.50;1.00
6662;DHT22;3367;48.714;8.994;2023-07-08T09:23:24;27.40;1.00
6662;DHT22;3367;48.714;8.994;2023-07-08T09:25:56;27.30;1.00
6662;DHT22;3367;48.714;8.994;2023-07-08T09:28:35;27.80;1.00
6662;DHT22;3367;48.714;8.994;2023-07-08T09:31:06;28.00;1.00
6662;DHT22;3367;48.714;8.994;2023-07-08T09:33:34;27.80;1.00
6662;DHT22;3367;48.714;8.994;2023-07-08T09:36:16;27.90;1.00
6662;DHT22;3367;48.714;8.994;2023-07-08T09:38:46;27.80;1.00
6662;DHT22;3367;48.714;8.994;2023-07-08T09:41:13;28.00;1.00
6662;DHT22;3367;48.714;8.994;2023-07-08T09:43:40;28.40;1.00
6662;DHT22;3367;48.714;8.994;2023-07-08T09:46:12;28.50;1.00
6662;DHT22;3367;48.714;8.994;2023-07-08T09:48:40;28.80;1.00
6662;DHT22;3367;48.714;8.994;2023-07-08T09:51:07;28.90;1.00
6662;DHT22;3367;48.714;8.994;2023-07-08T09:53:35;29.00;1.00
6662;DHT22;3367;48.714;8.994;2023-07-08T09:56:04;29.10;1.00
6662;DHT22;3367;48.714;8.994;2023-07-08T09:58:34;28.80;1.00
6662;DHT22;3367;48.714;8.994;2023-07-08T10:01:11;29.00;1.00
6662;DHT22;3367;48.714;8.994;2023-07-08T10:03:39;29.30;1.00
6662;DHT22;3367;48.714;8.994;2023-07-08T10:06:17;29.30;1.00
6662;DHT22;3367;48.714;8.994;2023-07-08T10:08:44;29.50;1.00
6662;DHT22;3367;48.714;8.994;2023-07-08T10:11:17;29.50;1.00
6662;DHT22;3367;48.714;8.994;2023-07-08T10:13:46;29.70;1.00
6662;DHT22;3367;48.714;8.994;2023-07-08T10:16:22;29.50;1.00
6662;DHT22;3367;48.714;8.994;2023-07-08T10:18:49;29.50;1.00
6662;DHT22;3367;48.714;8.994;2023-07-08T10:21:25;29.60;1.00
6662;DHT22;3367;48.714;8.994;2023-07-08T10:23:59;29.50;1.00
6662;DHT22;3367;48.714;8.994;2023-07-08T10:26:31;29.70;1.00
6662;DHT22;3367;48.714;8.994;2023-07-08T10:29:07;29.70;1.00
6662;DHT22;3367;48.714;8.994;2023-07-08T10:31:45;29.80;1.00
6662;DHT22;3367;48.714;8.994;2023-07-08T10:34:22;29.80;1.00
6662;DHT22;3367;48.714;8.994;2023-07-08T10:36:57;30.00;1.00
6662;DHT22;3367;48.714;8.994;2023-07-08T10:39:45;29.80;1.00
6662;DHT22;3367;48.714;8.994;2023-07-08T10:42:23;29.80;1.00
6662;DHT22;3367;48.714;8.994;2023-07-08T10:45:01;29.40;1.00
6662;DHT22;3367;48.714;8.994;2023-07-08T10:47:39;29.50;1.00
6662;DHT22;3367;48.714;8.994;2023-07-08T10:50:19;29.60;1.00
6662;DHT22;3367;48.714;8.994;2023-07-08T10:52:56;29.50;1.00
6662;DHT22;3367;48.714;8.994;2023-07-08T10:55:35;29.70;1.00
6662;DHT22;3367;48.714;8.994;2023-07-08T10:58:24;30.00;1.00
6662;DHT22;3367;48.714;8.994;2023-07-08T11:00:56;29.90;1.00
6662;DHT22;3367;48.714;8.994;2023-07-08T11:03:52;29.90;1.00
6662;DHT22;3367;48.714;8.994;2023-07-08T11:06:26;29.70;1.00
6662;DHT22;3367;48.714;8.994;2023-07-08T11:08:55;30.00;1.00
6662;DHT22;3367;48.714;8.994;2023-07-08T11:11:32;29.70;1.00
6662;DHT22;3367;48.714;8.994;2023-07-08T11:14:04;29.40;1.00
6662;DHT22;3367;48.714;8.994;2023-07-08T11:16:36;29.70;1.00
6662;DHT22;3367;48.714;8.994;2023-07-08T11:19:11;29.90;1.00
6662;DHT22;3367;48.714;8.994;2023-07-08T11:21:43;29.80;1.00
6662;DHT22;3367;48.714;8.994;2023-07-08T11:24:18;29.90;1.00
6662;DHT22;3367;48.714;8.994;2023-07-08T11:26:50;30.00;1.00
6662;DHT22;3367;48.714;8.994;2023-07-08T11:29:20;29.80;1.00
6662;DHT22;3367;48.714;8.994;2023-07-08T11:31:49;30.10;1.00
6662;DHT22;3367;48.714;8.994;2023-07-08T11:34:18;30.30;1.00
6662;DHT22;3367;48.714;8.994;2023-07-08T11:36:46;30.40;1.00
6662;DHT22;3367;48.714;8.994;2023-07-08T11:39:30;30.20;1.00
6662;DHT22;3367;48.714;8.994;2023-07-08T11:42:19;30.20;1.00
6662;DHT22;3367;48.714;8.994;2023-07-08T11:44:50;30.50;1.00
6662;DHT22;3367;48.714;8.994;2023-07-08T11:47:22;30.60;1.00
6662;DHT22;3367;48.714;8.994;2023-07-08T11:49:53;30.60;1.00
6662;DHT22;3367;48.714;8.994;2023-07-08T11:52:21;30.90;1.00
6662;DHT22;3367;48.714;8.994;2023-07-08T11:54:56;30.60;1.00
6662;DHT22;3367;48.714;8.994;2023-07-08T11:57:29;30.80;1.00
6662;DHT22;3367;48.714;8.994;2023-07-08T12:00:15;31.00;1.00
6662;DHT22;3367;48.714;8.994;2023-07-08T12:02:50;31.10;1.00
6662;DHT22;3367;48.714;8.994;2023-07-08T12:05:32;31.10;1.00
6662;DHT22;3367;48.714;8.994;2023-07-08T12:08:00;31.00;1.00
6662;DHT22;3367;48.714;8.994;2023-07-08T12:10:32;31.00;1.00
6662;DHT22;3367;48.714;8.994;2023-07-08T12:13:01;30.80;1.00
6662;DHT22;3367;48.714;8.994;2023-07-08T12:15:30;30.60;1.00
6662;DHT22;3367;48.714;8.994;2023-07-08T12:18:00;30.90;1.00
6662;DHT22;3367;48.714;8.994;2023-07-08T12:20:32;31.20;1.00
6662;DHT22;3367;48.714;8.994;2023-07-08T12:22:59;31.40;1.00
6662;DHT22;3367;48.714;8.994;2023-07-08T12:25:30;31.50;1.00
6662;DHT22;3367;48.714;8.994;2023-07-08T12:27:58;31.40;1.00
6662;DHT22;3367;48.714;8.994;2023-07-08T12:30:27;31.50;1.00
6662;DHT22;3367;48.714;8.994;2023-07-08T12:32:54;31.20;1.00
6662;DHT22;3367;48.714;8.994;2023-07-08T12:35:27;31.10;1.00
6662;DHT22;3367;48.714;8.994;2023-07-08T12:37:58;31.20;1.00
6662;DHT22;3367;48.714;8.994;2023-07-08T12:40:26;31.20;1.00
6662;DHT22;3367;48.714;8.994;2023-07-08T12:42:53;31.40;1.00
6662;DHT22;3367;48.714;8.994;2023-07-08T12:45:22;31.50;1.00
6662;DHT22;3367;48.714;8.994;2023-07-08T12:47:49;31.70;1.00
6662;DHT22;3367;48.714;8.994;2023-07-08T12:50:16;31.70;1.00
6662;DHT22;3367;48.714;8.994;2023-07-08T12:52:44;31.80;1.00
6662;DHT22;3367;48.714;8.994;2023-07-08T12:55:14;31.70;1.00
6662;DHT22;3367;48.714;8.994;2023-07-08T12:57:43;31.80;1.00
6662;DHT22;3367;48.714;8.994;2023-07-08T13:00:16;31.90;1.00
6662;DHT22;3367;48.714;8.994;2023-07-08T13:02:45;32.00;1.00
6662;DHT22;3367;48.714;8.994;2023-07-08T13:05:13;31.70;1.00
6662;DHT22;3367;48.714;8.994;2023-07-08T13:07:42;31.70;1.00
6662;DHT22;3367;48.714;8.994;2023-07-08T13:10:18;31.70;1.00
6662;DHT22;3367;48.714;8.994;2023-07-08T13:12:47;31.90;1.00
6662;DHT22;3367;48.714;8.994;2023-07-08T13:15:20;32.20;1.00
6662;DHT22;3367;48.714;8.994;2023-07-08T13:17:48;32.30;1.00
6662;DHT22;3367;48.714;8.994;2023-07-08T13:20:15;32.10;1.00
6662;DHT22;3367;48.714;8.994;2023-07-08T13:22:45;32.00;1.00
6662;DHT22;3367;48.714;8.994;2023-07-08T13:25:16;32.30;1.00
6662;DHT22;3367;48.714;8.994;2023-07-08T13:27:55;32.30;1.00
6662;DHT22;3367;48.714;8.994;2023-07-08T13:30:24;32.30;1.00
6662;DHT22;3367;48.714;8.994;2023-07-08T13:32:52;32.10;1.00
6662;DHT22;3367;48.714;8.994;2023-07-08T13:35:24;32.00;1.00
6662;DHT22;3367;48.714;8.994;2023-07-08T13:37:52;32.20;1.00
6662;DHT22;3367;48.714;8.994;2023-07-08T13:40:20;32.50;1.00
6662;DHT22;3367;48.714;8.994;2023-07-08T13:42:49;32.40;1.00
6662;DHT22;3367;48.714;8.994;2023-07-08T13:45:21;32.20;1.00
6662;DHT22;3367;48.714;8.994;2023-07-08T13:47:58;32.00;1.00
6662;DHT22;3367;48.714;8.994;2023-07-08T13:50:29;32.30;1.00
6662;DHT22;3367;48.714;8.994;2023-07-08T13:52:58;32.50;1.00
6662;DHT22;3367;48.714;8.994;2023-07-08T13:55:27;32.40;1.00
6662;DHT22;3367;48.714;8.994;2023-07-08T13:58:00;31.90;1.00
6662;DHT22;3367;48.714;8.994;2023-07-08T14:00:29;31.60;1.00
6662;DHT22;3367;48.714;8.994;2023-07-08T14:02:56;31.50;1.00
6662;DHT22;3367;48.714;8.994;2023-07-08T14:05:23;31.60;1.00
6662;DHT22;3367;48.714;8.994;2023-07-08T14:07:50;31.70;1.00
6662;DHT22;3367;48.714;8.994;2023-07-08T14:10:17;31.90;1.00
6662;DHT22;3367;48.714;8.994;2023-07-08T14:12:45;31.80;1.00
6662;DHT22;3367;48.714;8.994;2023-07-08T14:15:12;32.00;1.00
6662;DHT22;3367;48.714;8.994;2023-07-08T14:17:39;32.10;1.00
6662;DHT22;3367;48.714;8.994;2023-07-08T14:20:11;32.00;1.00
6662;DHT22;3367;48.714;8.994;2023-07-08T14:22:38;31.90;1.00
6662;DHT22;3367;48.714;8.994;2023-07-08T14:25:08;31.70;1.00
6662;DHT22;3367;48.714;8.994;2023-07-08T14:27:35;31.50;1.00
6662;DHT22;3367;48.714;8.994;2023-07-08T14:30:04;31.40;1.00
6662;DHT22;3367;48.714;8.994;2023-07-08T14:32:32;31.70;1.00
6662;DHT22;3367;48.714;8.994;2023-07-08T14:35:02;32.00;1.00
6662;DHT22;3367;48.714;8.994;2023-07-08T14:37:36;32.20;1.00
6662;DHT22;3367;48.714;8.994;2023-07-08T14:40:18;32.30;1.00
6662;DHT22;3367;48.714;8.994;2023-07-08T14:42:45;32.40;1.00
6662;DHT22;3367;48.714;8.994;2023-07-08T14:45:13;32.30;1.00
6662;DHT22;3367;48.714;8.994;2023-07-08T14:47:40;32.00;1.00
6662;DHT22;3367;48.714;8.994;2023-07-08T14:50:12;31.70;1.00
6662;DHT22;3367;48.714;8.994;2023-07-08T14:52:39;31.50;1.00
6662;DHT22;3367;48.714;8.994;2023-07-08T14:55:07;31.80;1.00
6662;DHT22;3367;48.714;8.994;2023-07-08T14:57:41;31.80;1.00
6662;DHT22;3367;48.714;8.994;2023-07-08T15:00:11;31.80;1.00
6662;DHT22;3367;48.714;8.994;2023-07-08T15:02:41;31.90;1.00
6662;DHT22;3367;48.714;8.994;2023-07-08T15:05:16;32.00;1.00
6662;DHT22;3367;48.714;8.994;2023-07-08T15:07:43;31.80;1.00
6662;DHT22;3367;48.714;8.994;2023-07-08T15:10:11;31.70;1.00
6662;DHT22;3367;48.714;8.994;2023-07-08T15:12:38;31.70;1.00
6662;DHT22;3367;48.714;8.994;2023-07-08T15:15:08;31.70;1.00
6662;DHT22;3367;48.714;8.994;2023-07-08T15:17:41;31.60;1.00
6662;DHT22;3367;48.714;8.994;2023-07-08T15:20:10;31.70;1.00
6662;DHT22;3367;48.714;8.994;2023-07-08T15:22:38;31.70;1.00
6662;DHT22;3367;48.714;8.994;2023-07-08T15:25:05;31.70;1.00
6662;DHT22;3367;48.714;8.994;2023-07-08T15:27:33;31.60;1.00
6662;DHT22;3367;48.714;8.994;2023-07-08T15:29:59;31.70;1.00
6662;DHT22;3367;48.714;8.994;2023-07-08T15:32:26;31.50;1.00
6662;DHT22;3367;48.714;8.994;2023-07-08T15:34:54;31.50;1.00
6662;DHT22;3367;48.714;8.994;2023-07-08T15:37:21;31.60;1.00
6662;DHT22;3367;48.714;8.994;2023-07-08T15:39:48;31.70;1.00
6662;DHT22;3367;48.714;8.994;2023-07-08T15:42:14;31.60;1.00
6662;DHT22;3367;48.714;8.994;2023-07-08T15:44:41;31.40;1.00
6662;DHT22;3367;48.714;8.994;2023-07-08T15:47:12;31.00;1.00
6662;DHT22;3367;48.714;8.994;2023-07-08T15:49:39;31.20;1.00
6662;DHT22;3367;48.714;8.994;2023-07-08T15:52:07;31.20;1.00
6662;DHT22;3367;48.714;8.994;2023-07-08T15:54:37;31.30;1.00
6662;DHT22;3367;48.714;8.994;2023-07-08T15:57:04;31.10;1.00
6662;DHT22;3367;48.714;8.994;2023-07-08T15:59:33;31.00;1.00
6662;DHT22;3367;48.714;8.994;2023-07-08T16:02:04;31.00;1.00
6662;DHT22;3367;48.714;8.994;2023-07-08T16:04:39;30.90;1.00
6662;DHT22;3367;48.714;8.994;2023-07-08T16:07:09;30.80;1.00
6662;DHT22;3367;48.714;8.994;2023-07-08T16:09:35;30.70;1.00
6662;DHT22;3367;48.714;8.994;2023-07-08T16:12:03;30.60;1.00
6662;DHT22;3367;48.714;8.994;2023-07-08T16:14:30;30.70;1.00
6662;DHT22;3367;48.714;8.994;2023-07-08T16:16:57;30.80;1.00
6662;DHT22;3367;48.714;8.994;2023-07-08T16:19:24;30.80;1.00
6662;DHT22;3367;48.714;8.994;2023-07-08T16:21:51;30.70;1.00
6662;DHT22;3367;48.714;8.994;2023-07-08T16:24:19;30.80;1.00
6662;DHT22;3367;48.714;8.994;2023-07-08T16:26:46;30.70;1.00
6662;DHT22;3367;48.714;8.994;2023-07-08T16:29:15;30.70;1.00
6662;DHT22;3367;48.714;8.994;2023-07-08T16:31:42;30.70;1.00